Data for 05/18/2018

Time Sea-Level Adjusted Pressure Absolute Pressure Temperature Relative Humidity Dew Point   
(mb) (inHg) (mb) (inHg) (C) (F) (%) (C) (F)
00:05 1018 30.06 847 25.01 9.6 49.3 83 6.9 44.5
00:10 1018 30.06 847 25.01 9.5 49.1 84 6.9 44.4
00:15 1018 30.06 847 25.01 9.5 49.2 83 6.8 44.3
00:20 1018 30.06 847 25.01 9.4 49 83 6.7 44.1
00:25 1018 30.06 847 25.01 9.5 49.1 83 6.8 44.2
00:30 1018 30.06 847 25.01 9.5 49.1 83 6.7 44
00:35 1018 30.06 847 25.01 9.5 49 83 6.7 44.1
00:40 1018 30.06 847 25.01 9.6 49.2 83 6.8 44.2
00:45 1018 30.06 847 25.01 9.6 49.4 82 6.7 44.1
00:50 1018 30.06 847 25.01 9.7 49.5 81 6.6 43.9
00:55 1018 30.06 847 25.01 9.8 49.6 79 6.3 43.4
01:00 1018 30.06 847 25.01 9.9 49.8 78 6.2 43.1
01:05 1018 30.06 847 25.01 10 49.9 77 6.2 43.1
01:10 1018 30.06 847 25.01 10 49.9 77 6.1 43
01:15 1018 30.06 847 25.01 10 50 77 6.1 42.9
01:20 1018 30.06 847 25.01 10 49.9 76 6 42.8
01:25 1018 30.06 847 25.01 10 49.9 76 5.9 42.6
01:30 1018 30.06 847 25.01 10 49.9 76 5.9 42.6
01:35 1018 30.06 847 25.01 9.9 49.9 76 6 42.8
01:40 1018 30.06 847 25.01 9.9 49.8 76 5.9 42.7
01:45 1018 30.06 847 25.01 9.9 49.8 77 6.2 43.1
01:50 1018 30.06 847 25.01 9.9 49.8 78 6.2 43.2
01:55 1018 30.06 847 25.01 9.7 49.5 80 6.5 43.7
02:00 1018 30.06 847 25.01 9.6 49.2 83 6.8 44.2
02:05 1018 30.06 847 25.01 9.4 49 85 7 44.6
02:10 1018 30.06 847 25.01 9.3 48.7 86 7 44.6
02:15 1018 30.06 847 25.01 9.2 48.6 86 7 44.5
02:20 1018 30.06 847 25.01 9.2 48.5 86 7 44.6
02:25 1018 30.06 847 25.01 9.2 48.5 86 7 44.7
02:30 1018 30.06 847 25.01 9.2 48.5 87 7 44.7
02:35 1018 30.06 847 25.01 9.2 48.5 87 7.1 44.7
02:40 1018 30.06 847 25.01 9.2 48.6 86 7 44.6
02:45 1018 30.06 847 25.01 9.2 48.6 86 7 44.5
02:50 1018 30.06 847 25.01 9.3 48.7 85 7 44.5
02:55 1018 30.06 847 25.01 9.3 48.7 85 6.9 44.4
03:00 1018 30.06 847 25.01 9.2 48.5 85 6.8 44.3
03:05 1018 30.06 847 25.01 9.1 48.4 85 6.8 44.2
03:10 1018 30.06 847 25.01 9.1 48.3 86 6.8 44.2
03:15 1018 30.06 847 25.01 9.1 48.3 86 6.9 44.4
03:20 1018 30.06 847 25.01 9 48.3 86 6.8 44.3
03:25 1018 30.06 847 25.01 8.9 48 85 6.4 43.6
03:30 1018 30.06 847 25.01 8.7 47.6 85 6.4 43.5
03:35 1018 30.06 847 25.01 8.6 47.4 86 6.4 43.6
03:40 1018 30.06 847 25.01 8.5 47.3 87 6.4 43.6
03:45 1018 30.06 847 25.01 8.5 47.2 86 6.3 43.4
03:50 1018 30.06 847 25.01 8.1 46.7 88 6.2 43.2
03:55 1018 30.06 847 25.01 8 46.4 88 6.1 43.1
04:00 1018 30.06 847 25.01 7.9 46.3 88 6.1 42.9
04:05 1018 30.06 847 25.01 7.9 46.2 88 6 42.8
04:10 1018 30.06 847 25.01 7.8 46 88 5.9 42.7
04:15 1018 30.06 847 25.01 7.7 45.8 88 5.8 42.4
04:20 1018 30.06 847 25.01 7.7 45.8 87 5.7 42.3
04:25 1018 30.06 847 25.01 7.7 45.8 87 5.7 42.3
04:30 1018 30.06 847 25.01 7.6 45.7 87 5.6 42.1
04:35 1018 30.06 847 25.01 7.6 45.6 87 5.6 42.1
04:40 1018 30.06 847 25.01 7.6 45.7 87 5.7 42.2
04:45 1018 30.06 847 25.01 7.6 45.6 87 5.6 42.1
04:50 1018 30.06 847 25.01 7.5 45.5 88 5.6 42
04:55 1018 30.06 847 25.01 7.4 45.4 88 5.6 42.1
05:00 1018 30.06 847 25.01 7.5 45.5 88 5.6 42.1
05:05 1018 30.06 847 25.01 7.5 45.5 88 5.6 42.1
05:10 1018 30.06 847 25.01 7.4 45.4 88 5.6 42
05:15 1018 30.06 847 25.01 7.3 45.2 88 5.5 41.8
05:20 1018 30.06 847 25.01 7.3 45.2 88 5.5 41.9
05:25 1018 30.06 847 25.01 7.3 45.1 88 5.5 41.9
05:30 1018 30.06 847 25.01 7.3 45.1 89 5.5 41.9
05:35 1018 30.06 847 25.01 7.3 45.1 89 5.5 42
05:40 1018 30.06 847 25.01 7.3 45.1 89 5.6 42.1
05:45 1018 30.06 847 25.01 7.2 44.9 89 5.5 42
05:50 1018 30.06 847 25.01 7.1 44.8 89 5.4 41.8
05:55 1018 30.06 847 25.01 7.1 44.7 89 5.4 41.7
06:00 1018 30.06 847 25.01 6.9 44.5 89 5.2 41.4
06:05 1018 30.06 847 25.01 6.8 44.3 89 5.1 41.3
06:10 1018 30.06 847 25.01 6.8 44.2 89 5.1 41.2
06:15 1018 30.06 848 25.04 6.8 44.3 89 5.1 41.2
06:20 1018 30.06 848 25.04 6.8 44.2 89 5.1 41.2
06:25 1018 30.06 847 25.01 6.8 44.3 89 5.1 41.1
06:30 1018 30.06 848 25.04 6.8 44.2 88 5 41
06:35 1018 30.06 848 25.04 6.7 44.1 89 5 40.9
06:40 1018 30.06 848 25.04 6.8 44.2 89 5 41.1
06:45 1018 30.06 848 25.04 6.9 44.4 88 5 41
06:50 1018 30.06 848 25.04 6.8 44.2 88 4.9 40.9
06:55 1019 30.09 848 25.04 6.7 44.1 88 4.9 40.8
07:00 1019 30.09 848 25.04 6.7 44.1 88 4.8 40.7
07:05 1019 30.09 848 25.04 6.6 43.9 88 4.8 40.6
07:10 1019 30.09 848 25.04 6.7 44 88 4.8 40.6
07:15 1019 30.09 848 25.04 6.7 44 87 4.7 40.4
07:20 1019 30.09 848 25.04 6.6 43.9 88 4.7 40.5
07:25 1019 30.09 848 25.04 6.6 43.8 88 4.7 40.5
07:30 1019 30.09 848 25.04 6.5 43.7 88 4.6 40.3
07:35 1019 30.09 848 25.04 6.5 43.7 88 4.6 40.3
07:40 1019 30.09 848 25.04 6.5 43.7 88 4.6 40.2
07:45 1019 30.09 848 25.04 6.5 43.7 88 4.6 40.3
07:50 1019 30.09 848 25.04 6.5 43.8 87 4.6 40.2
07:55 1019 30.09 848 25.04 6.5 43.6 88 4.6 40.2
08:00 1019 30.09 848 25.04 6.5 43.7 88 4.6 40.3
08:05 1019 30.09 848 25.04 6.5 43.6 88 4.6 40.2
08:10 1019 30.09 848 25.04 6.4 43.5 87 4.5 40
08:15 1019 30.09 848 25.04 6.5 43.6 87 4.5 40.1
08:20 1019 30.09 848 25.04 6.6 43.8 87 4.5 40.1
08:25 1019 30.09 848 25.04 6.5 43.6 87 4.5 40.1
08:30 1019 30.09 848 25.04 6.4 43.5 87 4.4 40
08:35 1019 30.09 848 25.04 6.4 43.5 87 4.4 40
08:40 1019 30.09 848 25.04 6.4 43.4 88 4.6 40.2
08:45 1019 30.09 848 25.04 6.5 43.7 87 4.5 40.2
08:50 1019 30.09 848 25.04 6.5 43.6 87 4.5 40.1
08:55 1019 30.09 848 25.04 6.5 43.7 87 4.5 40.1
09:00 1019 30.09 848 25.04 6.6 43.9 86 4.5 40.1
09:05 1019 30.09 848 25.04 6.4 43.6 86 4.3 39.8
09:10 1019 30.09 848 25.04 6.3 43.4 87 4.3 39.7
09:15 1019 30.09 849 25.07 6.4 43.6 86 4.4 39.8
09:20 1019 30.09 849 25.07 6.3 43.4 87 4.3 39.8
09:25 1019 30.09 849 25.07 6.4 43.6 86 4.3 39.7
09:30 1019 30.09 849 25.07 6.5 43.7 86 4.4 40
09:35 1019 30.09 849 25.07 6.6 43.8 86 4.3 39.8
09:40 1019 30.09 849 25.07 6.4 43.5 87 4.3 39.7
09:45 1020 30.12 849 25.07 6.4 43.4 86 4.2 39.5
09:50 1020 30.12 849 25.07 6.4 43.6 86 4.2 39.6
09:55 1020 30.12 849 25.07 6.4 43.5 86 4.2 39.6
10:00 1020 30.12 849 25.07 6.4 43.4 87 4.3 39.7
10:05 1020 30.12 849 25.07 6.4 43.5 86 4.2 39.6
10:10 1020 30.12 849 25.07 6.4 43.5 86 4.3 39.7
10:15 1020 30.12 849 25.07 6.6 43.9 85 4.3 39.8
10:20 1020 30.12 849 25.07 6.6 43.8 86 4.3 39.8
10:25 1020 30.12 849 25.07 6.5 43.7 86 4.3 39.7
10:30 1020 30.12 849 25.07 6.6 43.8 85 4.2 39.5
10:35 1020 30.12 849 25.07 6.8 44.2 84 4.3 39.7
10:40 1020 30.12 849 25.07 6.7 44.1 86 4.5 40.1
10:45 1020 30.12 849 25.07 6.8 44.2 84 4.3 39.7
10:50 1020 30.12 849 25.07 6.6 43.9 84 4.2 39.5
10:55 1020 30.12 849 25.07 6.8 44.2 84 4.2 39.6
11:00 1020 30.12 849 25.07 6.9 44.5 83 4.3 39.7
11:05 1020 30.12 849 25.07 6.7 44.1 84 4.3 39.7
11:10 1020 30.12 849 25.07 6.9 44.4 84 4.3 39.8
11:15 1020 30.12 849 25.07 6.8 44.3 84 4.3 39.7
11:20 1020 30.12 849 25.07 6.8 44.2 86 4.5 40.1
11:25 1020 30.12 849 25.07 6.9 44.4 85 4.6 40.3
11:30 1020 30.12 849 25.07 6.9 44.5 85 4.5 40.1
11:35 1020 30.12 849 25.07 6.7 44 87 4.6 40.3
11:40 1020 30.12 850 25.1 6.8 44.3 86 4.6 40.3
11:45 1020 30.12 850 25.1 6.8 44.2 86 4.6 40.3
11:50 1020 30.12 850 25.1 6.9 44.4 85 4.6 40.2
11:55 1020 30.12 850 25.1 6.9 44.4 86 4.7 40.4
12:00 1020 30.12 850 25.1 6.6 44 87 4.6 40.2
12:05 1021 30.15 850 25.1 6.8 44.3 86 4.6 40.3
12:10 1021 30.15 850 25.1 6.9 44.4 85 4.6 40.3
12:15 1020 30.12 850 25.1 6.9 44.5 85 4.7 40.4
12:20 1020 30.12 850 25.1 7.1 44.7 86 4.9 40.8
12:25 1021 30.15 850 25.1 7.3 45.1 84 4.7 40.5
12:30 1021 30.15 850 25.1 7.3 45.2 84 4.7 40.5
12:35 1021 30.15 850 25.1 7.2 45 83 4.6 40.2
12:40 1021 30.15 850 25.1 7.2 45 85 4.8 40.7
12:45 1021 30.15 850 25.1 7.3 45.2 82 4.6 40.2
12:50 1021 30.15 850 25.1 7.6 45.7 81 4.6 40.2
12:55 1021 30.15 850 25.1 7.7 45.8 81 4.7 40.5
13:00 1021 30.15 850 25.1 7.8 46 81 4.7 40.5
13:05 1021 30.15 850 25.1 8 46.3 81 4.8 40.7
13:10 1021 30.15 850 25.1 7.9 46.3 80 4.7 40.5
13:15 1021 30.15 850 25.1 7.9 46.3 81 5 40.9
13:20 1021 30.15 850 25.1 8 46.5 79 4.7 40.4
13:25 1021 30.15 850 25.1 8.1 46.6 80 4.8 40.7
13:30 1021 30.15 850 25.1 8.2 46.8 79 4.8 40.6
13:35 1021 30.15 850 25.1 8.1 46.6 79 4.7 40.4
13:40 1021 30.15 850 25.1 8.1 46.6 80 4.8 40.7
13:45 1021 30.15 850 25.1 8.4 47.1 79 4.9 40.8
13:50 1021 30.15 850 25.1 8.1 46.6 78 4.5 40.2
13:55 1021 30.15 850 25.1 8 46.3 81 4.9 40.8
14:00 1021 30.15 850 25.1 8 46.4 82 5.1 41.2
14:05 1021 30.15 850 25.1 8.3 46.9 82 5.4 41.7
14:10 1021 30.15 850 25.1 8.2 46.7 83 5.4 41.8
14:15 1021 30.15 850 25.1 8 46.4 83 5.4 41.7
14:20 1021 30.15 850 25.1 8.3 46.9 82 5.4 41.7
14:25 1021 30.15 850 25.1 8.3 46.9 81 5.3 41.5
14:30 1021 30.15 850 25.1 8.3 47 83 5.6 42.1
14:35 1021 30.15 850 25.1 8.2 46.8 83 5.5 41.9
14:40 1021 30.15 850 25.1 8.3 47 77 4.5 40.1
14:45 1021 30.15 850 25.1 8.4 47.1 81 5.4 41.6
14:50 1021 30.15 850 25.1 8.5 47.3 81 5.4 41.6
14:55 1021 30.15 850 25.1 8.4 47.1 85 6 42.8
15:00 1021 30.15 850 25.1 8.1 46.5 84 5.6 42.1
15:05 1021 30.15 850 25.1 8 46.3 83 5.2 41.4
15:10 1021 30.15 850 25.1 8.1 46.6 84 5.6 42
15:15 1021 30.15 850 25.1 8.3 47 83 5.6 42.1
15:20 1021 30.15 850 25.1 8.2 46.7 82 5.3 41.5
15:25 1021 30.15 850 25.1 8.3 46.9 82 5.5 41.8
15:30 1021 30.15 850 25.1 8.3 46.9 81 5.2 41.3
15:35 1021 30.15 850 25.1 8.2 46.7 82 5.2 41.4
15:40 1021 30.15 850 25.1 8.2 46.8 81 5.1 41.2
15:45 1021 30.15 850 25.1 8.3 46.9 80 5 41
15:50 1021 30.15 850 25.1 8.2 46.8 83 5.5 41.9
15:55 1021 30.15 850 25.1 8.2 46.8 83 5.6 42.1
16:00 1021 30.15 850 25.1 8.3 46.9 80 5.1 41.2
16:05 1021 30.15 850 25.1 8 46.4 83 5.3 41.5
16:10 1021 30.15 850 25.1 8 46.4 81 4.9 40.9
16:15 1021 30.15 850 25.1 8.1 46.5 83 5.4 41.7
16:20 1021 30.15 850 25.1 8.2 46.7 80 4.9 40.9
16:25 1021 30.15 850 25.1 8 46.5 82 5.2 41.4
16:30 1021 30.15 850 25.1 8.1 46.6 82 5.2 41.4
16:35 1021 30.15 850 25.1 8 46.4 81 5 41
16:40 1021 30.15 850 25.1 7.9 46.2 80 4.7 40.4
16:45 1021 30.15 850 25.1 7.8 46.1 82 4.9 40.7
16:50 1021 30.15 850 25.1 7.8 46 82 4.9 40.8
16:55 1021 30.15 850 25.1 7.8 46 82 4.8 40.7
17:00 1021 30.15 850 25.1 7.8 46 81 4.7 40.4
17:05 1021 30.15 850 25.1 7.8 46.1 79 4.4 39.9
17:10 1021 30.15 850 25.1 8 46.3 79 4.5 40.2
17:15 1021 30.15 850 25.1 8 46.3 79 4.6 40.3
17:20 1021 30.15 850 25.1 7.9 46.2 77 4.2 39.6
17:25 1021 30.15 850 25.1 7.8 46 77 4 39.2
17:30 1021 30.15 850 25.1 7.8 46 78 4.1 39.5
17:35 1021 30.15 850 25.1 7.8 46 78 4.1 39.4
17:40 1021 30.15 850 25.1 7.8 46 78 4.3 39.7
17:45 1021 30.15 850 25.1 7.8 46 78 4.2 39.5
17:50 1021 30.15 850 25.1 7.8 46 78 4.2 39.5
17:55 1021 30.15 850 25.1 7.7 45.9 79 4.3 39.7
18:00 1021 30.15 850 25.1 7.7 45.9 79 4.3 39.8
18:05 1021 30.15 850 25.1 7.8 46 77 4.1 39.4
18:10 1021 30.15 850 25.1 7.8 46 78 4.1 39.5
18:15 1021 30.15 850 25.1 7.7 45.9 78 4.1 39.5
18:20 1021 30.15 850 25.1 7.7 45.9 79 4.2 39.6
18:25 1021 30.15 850 25.1 7.7 45.9 78 4.2 39.5
18:30 1021 30.15 850 25.1 7.7 45.9 78 4.1 39.4
18:35 1021 30.15 850 25.1 7.7 45.9 78 4.1 39.4
18:40 1021 30.15 850 25.1 7.7 45.9 78 4.2 39.5
18:45 1021 30.15 850 25.1 7.7 45.9 78 4.1 39.4
18:50 1021 30.15 850 25.1 7.7 45.8 78 4.2 39.5
18:55 1021 30.15 850 25.1 7.7 45.8 78 4.1 39.4
19:00 1021 30.15 850 25.1 7.6 45.7 78 4.1 39.3
19:05 1021 30.15 850 25.1 7.6 45.7 78 4 39.2
19:10 1021 30.15 850 25.1 7.6 45.7 78 4 39.3
19:15 1021 30.15 850 25.1 7.6 45.7 79 4.1 39.4
19:20 1021 30.15 850 25.1 7.6 45.6 78 4 39.3
19:25 1021 30.15 851 25.13 7.5 45.5 79 4.2 39.5
19:30 1021 30.15 851 25.13 7.5 45.5 79 4.1 39.3
19:35 1021 30.15 851 25.13 7.5 45.4 79 4 39.2
19:40 1021 30.15 851 25.13 7.5 45.5 77 3.7 38.6
19:45 1022 30.18 851 25.13 7.5 45.6 76 3.5 38.3
19:50 1022 30.18 851 25.13 7.5 45.5 77 3.8 38.8
19:55 1022 30.18 851 25.13 7.4 45.4 78 3.8 38.9
20:00 1022 30.18 851 25.13 7.2 45 79 3.8 38.9
20:05 1022 30.18 851 25.13 7.1 44.8 79 3.8 38.8
20:10 1022 30.18 851 25.13 7.1 44.8 79 3.7 38.7
20:15 1022 30.18 851 25.13 7 44.7 80 3.8 38.8
20:20 1022 30.18 851 25.13 7 44.5 79 3.7 38.6
20:25 1022 30.18 851 25.13 6.9 44.4 79 3.4 38.2
20:30 1022 30.18 851 25.13 6.9 44.3 78 3.4 38.1
20:35 1022 30.18 851 25.13 6.8 44.2 78 3.3 38
20:40 1022 30.18 851 25.13 6.7 44.1 78 3.3 37.9
20:45 1022 30.18 851 25.13 6.7 44 78 3.2 37.7
20:50 1022 30.18 851 25.13 6.7 44 79 3.2 37.8
20:55 1022 30.18 851 25.13 6.6 43.9 78 3.1 37.6
21:00 1022 30.18 851 25.13 6.6 43.9 79 3.1 37.6
21:05 1022 30.18 851 25.13 6.5 43.8 78 2.9 37.2
21:10 1022 30.18 851 25.13 6.5 43.6 78 2.8 37.1
21:15 1022 30.18 851 25.13 6.4 43.5 78 2.8 37
21:20 1022 30.18 851 25.13 6.3 43.3 79 2.9 37.2
21:25 1022 30.18 851 25.13 6.1 43 79 2.7 36.9
21:30 1022 30.18 851 25.13 6 42.9 78 2.6 36.6
21:35 1022 30.18 851 25.13 6 42.7 78 2.5 36.5
21:40 1022 30.18 852 25.16 5.9 42.5 79 2.5 36.5
21:45 1022 30.18 852 25.16 5.8 42.4 79 2.5 36.5
21:50 1023 30.21 852 25.16 5.7 42.3 79 2.4 36.4
21:55 1023 30.21 852 25.16 5.7 42.3 79 2.4 36.3
22:00 1023 30.21 852 25.16 5.7 42.2 78 2.2 35.9
22:05 1023 30.21 852 25.16 5.6 42.2 77 2 35.6
22:10 1023 30.21 852 25.16 5.6 42.1 78 2 35.7
22:15 1023 30.21 852 25.16 5.6 42.1 77 1.9 35.5
22:20 1023 30.21 852 25.16 5.6 42 76 1.7 35.1
22:25 1023 30.21 852 25.16 5.6 42 76 1.7 35.1
22:30 1023 30.21 852 25.16 5.6 42.1 76 1.7 35
22:35 1023 30.21 852 25.16 5.6 42 75 1.5 34.8
22:40 1023 30.21 852 25.16 5.7 42.2 74 1.3 34.4
22:45 1023 30.21 852 25.16 5.7 42.2 74 1.4 34.5
22:50 1023 30.21 852 25.16 5.6 42.2 74 1.4 34.4
22:55 1023 30.21 852 25.16 5.7 42.2 74 1.4 34.6
23:00 1023 30.21 852 25.16 5.6 42.1 75 1.5 34.8
23:05 1023 30.21 852 25.16 5.5 41.8 76 1.5 34.7
23:10 1023 30.21 852 25.16 5.4 41.7 76 1.5 34.7
23:15 1023 30.21 852 25.16 5.3 41.6 76 1.4 34.5
23:20 1023 30.21 852 25.16 5.3 41.5 76 1.4 34.5
23:25 1023 30.21 852 25.16 5.3 41.5 76 1.3 34.4
23:30 1023 30.21 852 25.16 5.3 41.5 77 1.5 34.7
23:35 1023 30.21 852 25.16 5.2 41.3 77 1.5 34.6
23:40 1023 30.21 852 25.16 5.1 41.1 78 1.5 34.7
23:45 1023 30.21 852 25.16 5 41 78 1.5 34.7
23:50 1023 30.21 852 25.16 4.9 40.9 79 1.5 34.8
23:55 1023 30.21 852 25.16 4.9 40.7 79 1.5 34.7
24:00 1023 30.21 852 25.16 4.8 40.6 79 1.5 34.7